ENAR weather

Arendal Heliport, Hospital
Arendal, Aust-Agder, Norway

Public forecast

Using degrees Celsius for public forecast. Weather courtesy of forecast.io.

Closest aviation weather report (METAR) to Arendal Heliport, Hospital

Closest report is Kristiansand Airport, 26.3 nm (48.8 km) SW. Retrieved 2020/05/27 15:20 UTC (19 minutes ago):

ENCN 271520Z 31009KT 250V350 CAVOK 17/02 Q1031

Closest aviation forecast (TAF) to Arendal Heliport, Hospital

Forecast is more than 12 hours old.

Closest forecast is Kristiansand Airport, 26.3 nm (48.8 km) SW. Retrieved 2016/05/06 12:39 UTC (4 years ago):

TAF TAF ENCN 061100Z 0612/0712 14008KT 9999 FEW040